Time;durP1;ratioP1;P1;durP2;ratioP2;P2;SDS_P1;SDS_P2;PMS_P1;PMS_P2;Temp;Humidity;BMP_temperature;BMP_pressure;BME280_temperature;BME280_humidity;BME280_pressure;Samples;Min_cycle;Max_cycle;Signal;HPM_P1;HPM_P2
2023/10/01 00:00:43;;;;;;;;;3.00;3.00;;;;;-143.90;100.00;76268.09;4961739;28;102816;-75
2023/10/01 00:03:10;;;;;;;;;2.00;1.00;;;;;-143.90;100.00;76274.28;4953471;28;102249;-75
2023/10/01 00:05:40;;;;;;;;;2.75;2.00;;;;;-143.90;100.00;76272.22;4961404;27;104413;-75
2023/10/01 00:08:08;;;;;;;;;4.75;3.50;;;;;-143.90;100.00;76268.09;4971652;28;101992;-74
2023/10/01 00:10:35;;;;;;;;;1.00;1.00;;;;;-143.90;100.00;76268.09;4622821;28;10001380;-75
2023/10/01 00:13:02;;;;;;;;;2.00;2.00;;;;;-143.90;100.00;76268.09;4972889;28;102425;-75
2023/10/01 00:15:30;;;;;;;;;2.50;2.00;;;;;-143.90;100.00;76261.88;4965556;28;102289;-74
2023/10/01 00:17:57;;;;;;;;;2.50;2.00;;;;;-143.90;100.00;76257.75;4968133;28;103557;-75
2023/10/01 00:20:28;;;;;;;;;2.00;2.00;;;;;-143.90;100.00;76251.53;4960269;28;102228;-75
2023/10/01 00:22:59;;;;;;;;;2.25;2.00;;;;;-143.90;100.00;76259.81;4963574;28;102284;-74
2023/10/01 00:25:27;;;;;;;;;2.00;1.75;;;;;-143.90;100.00;76263.97;4968909;28;102028;-74
2023/10/01 00:27:57;;;;;;;;;1.00;1.00;;;;;-143.90;100.00;76266.03;4965772;28;105237;-75
2023/10/01 00:30:25;;;;;;;;;2.00;2.00;;;;;-143.90;100.00;76270.16;4968471;28;105409;-73
2023/10/01 00:32:55;;;;;;;;;1.50;1.25;;;;;-143.90;100.00;76280.50;4958413;28;102005;-74
2023/10/01 00:35:22;;;;;;;;;1.25;1.25;;;;;-143.90;100.00;76280.50;4969599;28;102322;-75
2023/10/01 00:37:49;;;;;;;;;3.00;3.00;;;;;-143.90;100.00;76284.63;4982135;28;104067;-74
2023/10/01 00:40:17;;;;;;;;;1.50;1.00;;;;;-143.90;100.00;76282.56;4967636;28;102359;-74
2023/10/01 00:42:44;;;;;;;;;2.00;2.00;;;;;-143.90;100.00;76278.44;4986462;28;102343;-75
2023/10/01 00:45:13;;;;;;;;;3.50;1.75;;;;;-143.90;100.00;76280.50;4967149;28;102333;-75
2023/10/01 00:47:42;;;;;;;;;2.75;2.00;;;;;-143.90;100.00;76288.78;4962749;28;104353;-74
2023/10/01 00:50:11;;;;;;;;;0.00;0.00;;;;;-143.90;100.00;76288.78;4964749;28;102441;-75
2023/10/01 00:52:40;;;;;;;;;3.50;3.00;;;;;-143.90;100.00;76288.78;4975921;27;102082;-75
2023/10/01 00:55:11;;;;;;;;;0.25;0.25;;;;;-143.90;100.00;76282.56;4963276;28;103297;-75
2023/10/01 00:57:38;;;;;;;;;3.25;1.00;;;;;-143.90;100.00;76278.44;4965346;28;103506;-76
2023/10/01 01:00:14;;;;;;;;;0.75;0.00;;;;;-143.90;100.00;76270.16;4972814;28;101986;-74
2023/10/01 01:02:57;;;;;;;;;2.75;2.00;;;;;-143.90;100.00;76276.38;4963908;28;102351;-74
2023/10/01 01:05:34;;;;;;;;;2.25;2.25;;;;;-143.90;100.00;76268.09;4963626;28;102323;-74
2023/10/01 01:08:10;;;;;;;;;1.75;1.75;;;;;-143.90;100.00;76266.03;4965792;28;107182;-74
2023/10/01 01:10:40;;;;;;;;;3.00;3.00;;;;;-143.90;100.00;76259.81;4959223;28;102291;-75
2023/10/01 01:13:08;;;;;;;;;2.75;2.75;;;;;-143.90;100.00;76272.22;4965840;28;102138;-75
2023/10/01 01:15:35;;;;;;;;;3.00;2.25;;;;;-143.90;100.00;76263.97;4973161;28;102028;-75
2023/10/01 01:18:07;;;;;;;;;2.00;2.00;;;;;-143.90;100.00;76259.81;4962464;28;108672;-74
2023/10/01 01:20:36;;;;;;;;;2.00;1.00;;;;;-143.90;100.00;76268.09;4966895;27;101991;-74
2023/10/01 01:23:06;;;;;;;;;2.00;2.00;;;;;-143.90;100.00;76284.63;4965824;28;102440;-74
2023/10/01 01:25:33;;;;;;;;;1.50;1.00;;;;;-143.90;100.00;76278.44;4968244;28;102267;-74
2023/10/01 01:28:00;;;;;;;;;2.00;2.00;;;;;-143.90;100.00;76294.97;4972749;28;104143;-74
2023/10/01 01:30:29;;;;;;;;;3.50;3.00;;;;;-143.90;100.00;76301.19;4972953;28;102380;-74
2023/10/01 01:32:57;;;;;;;;;2.25;2.25;;;;;-143.90;100.00;76305.31;4969040;28;102232;-74
2023/10/01 01:35:30;;;;;;;;;3.00;2.25;;;;;-143.90;100.00;76309.44;4964199;28;103122;-74
2023/10/01 01:38:01;;;;;;;;;2.00;2.00;;;;;-143.90;100.00;76305.31;4965044;28;103907;-74
2023/10/01 01:40:36;;;;;;;;;1.25;1.25;;;;;-143.90;100.00;76315.66;4957459;28;102021;-74
2023/10/01 01:43:15;;;;;;;;;3.00;3.00;;;;;-143.90;100.00;76313.59;4965566;28;102464;-74
2023/10/01 01:45:47;;;;;;;;;2.00;2.00;;;;;-143.90;100.00;76317.72;4983395;28;102103;-74
2023/10/01 01:48:34;;;;;;;;;3.00;3.00;;;;;-143.90;100.00;76317.72;4969896;28;103706;-74
2023/10/01 01:51:02;;;;;;;;;3.50;3.00;;;;;-143.90;100.00;76317.72;4965638;28;102497;-74
2023/10/01 01:53:36;;;;;;;;;3.25;2.75;;;;;-143.90;100.00;76319.78;4968866;28;102180;-74
2023/10/01 01:56:10;;;;;;;;;2.00;2.00;;;;;-143.90;100.00;76326.00;4969777;28;102390;-74
2023/10/01 01:58:39;;;;;;;;;4.75;2.00;;;;;-143.90;100.00;76326.00;4970535;28;108817;-74
2023/10/01 02:03:45;;;;;;;;;3.00;2.25;;;;;-143.90;100.00;76315.66;4962316;28;102419;-74
2023/10/01 02:06:14;;;;;;;;;2.00;2.00;;;;;-143.90;100.00;76323.94;4964351;28;104302;-74
2023/10/01 02:08:57;;;;;;;;;2.75;2.75;;;;;-143.90;100.00;76326.00;4965051;28;105097;-74
2023/10/01 02:11:25;;;;;;;;;2.00;2.00;;;;;-143.90;100.00;76326.00;4963277;28;102006;-75
2023/10/01 02:13:54;;;;;;;;;2.00;2.00;;;;;-143.90;100.00;76321.84;4970260;28;102619;-74
2023/10/01 02:19:11;;;;;;;;;2.00;2.00;;;;;-143.90;100.00;76313.59;4962760;28;107192;-75
2023/10/01 02:21:42;;;;;;;;;3.00;3.00;;;;;-143.90;100.00;76313.59;4971690;28;102294;-75
2023/10/01 02:24:14;;;;;;;;;1.75;1.75;;;;;-143.90;100.00;76311.53;4969300;28;102250;-74
2023/10/01 02:26:42;;;;;;;;;1.00;1.00;;;;;-143.90;100.00;76301.19;4970516;28;102200;-75
2023/10/01 02:29:17;;;;;;;;;0.00;0.00;;;;;-143.90;100.00;76311.53;4961780;28;104083;-75
2023/10/01 02:31:48;;;;;;;;;1.00;1.00;;;;;-143.90;100.00;76319.78;4970567;28;102353;-75
2023/10/01 02:34:17;;;;;;;;;2.50;2.00;;;;;-143.90;100.00;76321.84;4969395;28;102114;-75
2023/10/01 02:36:45;;;;;;;;;2.00;1.25;;;;;-143.90;100.00;76323.94;4966502;28;102394;-75
2023/10/01 02:39:20;;;;;;;;;1.75;1.75;;;;;-143.90;100.00;76332.19;4965395;28;103437;-75
2023/10/01 02:42:09;;;;;;;;;3.00;2.00;;;;;-143.90;100.00;76321.84;4964897;28;102046;-75
2023/10/01 02:44:40;;;;;;;;;3.25;3.00;;;;;-143.90;100.00;76319.78;4966433;28;102332;-76
2023/10/01 02:47:18;;;;;;;;;2.00;2.00;;;;;-143.90;100.00;76309.44;4967563;28;102043;-75
2023/10/01 02:49:54;;;;;;;;;2.50;1.00;;;;;-143.90;100.00;76307.38;4967949;28;103650;-75
2023/10/01 02:52:36;;;;;;;;;3.00;3.00;;;;;-143.90;100.00;76299.09;4962749;28;102197;-75
2023/10/01 02:55:17;;;;;;;;;2.00;2.00;;;;;-143.90;100.00;76309.44;4968225;28;102223;-75
2023/10/01 02:57:50;;;;;;;;;4.00;4.00;;;;;-143.90;100.00;76315.66;4965289;28;102029;-75
2023/10/01 03:02:53;;;;;;;;;4.50;3.00;;;;;-143.90;100.00;76307.38;4971575;28;102346;-75
2023/10/01 03:07:53;;;;;;;;;3.00;2.75;;;;;-143.90;100.00;76303.25;4966620;28;102324;-75
2023/10/01 03:10:26;;;;;;;;;4.00;3.75;;;;;-143.90;100.00;76297.03;4970175;28;104197;-75
2023/10/01 03:12:58;;;;;;;;;4.75;4.75;;;;;-143.90;100.00;76292.91;4940353;28;102183;-75
2023/10/01 03:15:28;;;;;;;;;2.75;2.75;;;;;-143.90;100.00;76288.78;4970594;28;102147;-75
2023/10/01 03:18:05;;;;;;;;;4.00;3.75;;;;;-143.90;100.00;76280.50;4988681;28;102416;-75
2023/10/01 03:23:25;;;;;;;;;7.00;3.00;;;;;-143.90;100.00;76280.50;4973366;28;102344;-74
2023/10/01 03:28:34;;;;;;;;;7.00;5.00;;;;;-143.90;100.00;76270.16;4966015;28;103255;-75
2023/10/01 03:31:08;;;;;;;;;5.00;4.25;;;;;-143.90;100.00;76282.56;4964832;28;103060;-75
2023/10/01 03:33:39;;;;;;;;;3.75;3.50;;;;;-143.90;100.00;76278.44;4970099;28;102437;-74
2023/10/01 03:36:10;;;;;;;;;4.00;4.00;;;;;-143.90;100.00;76276.38;4966022;28;102245;-75
2023/10/01 03:38:43;;;;;;;;;3.50;3.00;;;;;-143.90;100.00;76268.09;4970113;28;101969;-74
2023/10/01 03:41:21;;;;;;;;;4.00;3.50;;;;;-143.90;100.00;76268.09;4966773;27;103832;-74
2023/10/01 03:43:50;;;;;;;;;4.00;4.00;;;;;-143.90;100.00;76253.63;4965028;28;102105;-74
2023/10/01 03:46:45;;;;;;;;;0.00;0.00;;;;;-143.90;100.00;76261.88;4965660;27;102227;-74
2023/10/01 03:51:58;;;;;;;;;3.00;2.00;;;;;-143.90;100.00;76266.03;4959807;28;108868;-75
2023/10/01 03:57:19;;;;;;;;;3.00;3.00;;;;;-143.90;100.00;76272.22;4969042;28;102084;-74
2023/10/01 03:59:53;;;;;;;;;4.00;3.50;;;;;-143.90;100.00;76272.22;4970254;28;102360;-74
2023/10/01 04:02:28;;;;;;;;;4.00;4.00;;;;;-143.90;100.00;76276.38;4968170;28;108138;-75
2023/10/01 04:04:58;;;;;;;;;4.50;4.00;;;;;-143.90;100.00;76268.09;4965990;28;102294;-75
2023/10/01 04:07:42;;;;;;;;;2.00;2.00;;;;;-143.90;100.00;76261.88;4969722;28;102106;-75
2023/10/01 04:10:19;;;;;;;;;3.25;2.75;;;;;-143.90;100.00;76263.97;4967219;28;102130;-75
2023/10/01 04:12:54;;;;;;;;;3.00;2.00;;;;;-143.90;100.00;76268.09;4964330;28;103398;-75
2023/10/01 04:15:31;;;;;;;;;3.00;3.00;;;;;-143.90;100.00;76268.09;4968583;28;102017;-75
2023/10/01 04:20:47;;;;;;;;;7.00;4.00;;;;;-143.90;100.00;76263.97;4968200;28;102090;-75
2023/10/01 04:23:21;;;;;;;;;8.00;6.00;;;;;-143.90;100.00;76249.47;4967651;28;104229;-75
2023/10/01 04:25:51;;;;;;;;;4.50;3.00;;;;;-143.90;100.00;76251.53;4964393;28;102389;-75
2023/10/01 04:28:21;;;;;;;;;4.75;4.75;;;;;-143.90;100.00;76249.47;4969884;28;102151;-75
2023/10/01 04:30:51;;;;;;;;;5.00;4.50;;;;;-143.90;100.00;76239.13;4967608;28;102292;-75
2023/10/01 04:33:23;;;;;;;;;3.75;3.75;;;;;-143.90;100.00;76235.00;4966041;28;104311;-75
2023/10/01 04:35:51;;;;;;;;;6.75;6.75;;;;;-143.90;100.00;76228.81;4969132;28;102296;-75
2023/10/01 04:38:20;;;;;;;;;8.00;4.75;;;;;-143.90;100.00;76230.88;4961479;28;101787;-75
2023/10/01 04:40:49;;;;;;;;;3.00;3.00;;;;;-143.90;100.00;76235.00;4969444;28;103206;-75
2023/10/01 04:43:16;;;;;;;;;7.00;5.00;;;;;-143.90;100.00;76239.13;4967304;28;104190;-75
2023/10/01 04:45:44;;;;;;;;;2.00;1.50;;;;;-143.90;100.00;76228.81;4967987;28;102193;-75
2023/10/01 04:48:47;;;;;;;;;3.75;3.00;;;;;-143.90;100.00;76224.66;4967751;28;102060;-75
2023/10/01 04:51:07;;;;;;;;;5.25;3.00;;;;;-143.90;100.00;76232.94;4967255;28;104266;-75
2023/10/01 04:53:34;;;;;;;;;7.00;7.00;;;;;-143.90;100.00;76222.59;4964482;28;103773;-75
2023/10/01 04:56:01;;;;;;;;;4.00;3.25;;;;;-143.90;100.00;76212.25;4968886;28;101994;-75
2023/10/01 04:58:38;;;;;;;;;3.00;2.00;;;;;-143.90;100.00;76210.19;4969287;28;102199;-75
2023/10/01 05:01:11;;;;;;;;;4.00;3.00;;;;;-143.90;100.00;76208.13;4965312;28;102234;-75
2023/10/01 05:03:39;;;;;;;;;4.50;3.00;;;;;-143.90;100.00;76197.78;4964701;28;103946;-75
2023/10/01 05:06:14;;;;;;;;;3.25;3.00;;;;;-143.90;100.00;76206.06;4962757;28;102100;-74
2023/10/01 05:08:42;;;;;;;;;5.00;4.25;;;;;-143.90;100.00;76199.84;4968247;28;102028;-74
2023/10/01 05:11:11;;;;;;;;;3.00;2.75;;;;;-143.90;100.00;76206.06;4963449;28;102260;-74
2023/10/01 05:13:40;;;;;;;;;4.25;4.00;;;;;-143.90;100.00;76193.66;4967293;28;103453;-75
2023/10/01 05:16:12;;;;;;;;;5.50;5.00;;;;;-143.90;100.00;76193.66;4961237;28;102467;-74
2023/10/01 05:18:43;;;;;;;;;6.50;5.00;;;;;-143.90;100.00;76191.56;4960396;28;103394;-74
2023/10/01 05:21:13;;;;;;;;;1.25;1.25;;;;;-143.90;100.00;76187.44;4981199;28;102959;-75
2023/10/01 05:23:41;;;;;;;;;5.00;4.00;;;;;-143.90;100.00;76177.09;4970369;28;105571;-75
2023/10/01 05:26:09;;;;;;;;;2.00;1.50;;;;;-143.90;100.00;76177.09;4969002;28;102802;-74
2023/10/01 05:28:40;;;;;;;;;3.50;3.00;;;;;-143.90;100.00;76158.50;4968205;28;102038;-75
2023/10/01 05:31:09;;;;;;;;;2.75;2.50;;;;;-143.90;100.00;76164.69;4970123;28;101980;-74
2023/10/01 05:33:35;;;;;;;;;3.25;3.25;;;;;-143.90;100.00;76168.81;4965157;27;104251;-75
2023/10/01 05:36:06;;;;;;;;;1.00;1.00;;;;;-143.90;100.00;76152.28;4965237;28;102035;-76
2023/10/01 05:38:36;;;;;;;;;3.00;2.25;;;;;-143.90;100.00;76156.41;4965217;28;102684;-74
2023/10/01 05:41:04;;;;;;;;;1.00;1.00;;;;;-143.90;100.00;76137.81;4963670;28;102328;-75
2023/10/01 05:43:38;;;;;;;;;3.00;2.00;;;;;-143.90;100.00;76133.69;4959235;28;103244;-75
2023/10/01 05:46:08;;;;;;;;;2.00;1.75;;;;;-143.90;100.00;76133.69;4965136;28;102135;-74
2023/10/01 05:48:37;;;;;;;;;2.75;2.00;;;;;-143.90;100.00;76139.88;4963615;28;102401;-74
2023/10/01 05:51:06;;;;;;;;;1.00;1.00;;;;;-143.90;100.00;76133.69;4965898;28;101960;-74
2023/10/01 05:53:33;;;;;;;;;1.25;1.25;;;;;-143.90;100.00;76131.59;4967028;28;104591;-75
2023/10/01 05:56:07;;;;;;;;;0.75;0.75;;;;;-143.90;100.00;76123.34;4965331;28;102078;-75
2023/10/01 05:58:34;;;;;;;;;2.25;2.00;;;;;-143.90;100.00;76106.78;4963710;28;101878;-74
2023/10/01 06:01:13;;;;;;;;;2.00;2.00;;;;;-143.90;100.00;76115.06;4970116;28;102143;-74
2023/10/01 06:03:42;;;;;;;;;3.00;3.00;;;;;-143.90;100.00;76100.59;4967058;28;104175;-74
2023/10/01 06:06:24;;;;;;;;;2.00;1.75;;;;;-143.90;100.00;76108.84;4964582;28;102416;-75
2023/10/01 06:09:01;;;;;;;;;3.00;2.00;;;;;-143.90;100.00;76104.72;4967962;28;102093;-75
2023/10/01 06:11:38;;;;;;;;;2.50;1.50;;;;;-143.90;100.00;76075.78;4963982;28;102305;-75
2023/10/01 06:14:06;;;;;;;;;2.00;1.00;;;;;-143.90;100.00;76084.03;4962350;28;103494;-75
2023/10/01 06:16:39;;;;;;;;;3.00;2.25;;;;;-143.90;100.00;76069.56;4967337;28;102263;-74
2023/10/01 06:19:11;;;;;;;;;3.00;3.00;;;;;-143.90;100.00;76065.44;4976680;28;102265;-75
2023/10/01 06:21:41;;;;;;;;;1.25;0.50;;;;;-143.90;100.00;76057.16;4970557;28;102346;-75
2023/10/01 06:24:10;;;;;;;;;2.00;0.25;;;;;-143.90;100.00;76053.03;4968633;28;103986;-75
2023/10/01 06:26:42;;;;;;;;;0.00;0.00;;;;;-143.90;100.00;76053.03;4972616;28;102150;-74
2023/10/01 06:29:11;;;;;;;;;1.00;1.00;;;;;-143.90;100.00;76042.69;4970119;28;101890;-75
2023/10/01 06:34:34;;;;;;;;;1.25;1.00;;;;;-143.90;100.00;76024.06;4969202;28;108852;-75
2023/10/01 06:37:01;;;;;;;;;3.25;3.00;;;;;-143.90;100.00;76007.53;4970724;28;103141;-74
2023/10/01 06:39:40;;;;;;;;;1.50;1.00;;;;;-143.90;100.00;76011.66;4969628;28;102015;-75
2023/10/01 06:42:20;;;;;;;;;4.75;4.75;;;;;-143.90;100.00;76007.53;4972507;28;102467;-75
2023/10/01 06:44:53;;;;;;;;;8.50;7.25;;;;;-143.90;100.00;75999.25;4974205;28;102844;-74
2023/10/01 06:47:26;;;;;;;;;2.00;2.00;;;;;-143.90;100.00;75991.00;4970815;28;102200;-75
2023/10/01 06:49:57;;;;;;;;;4.00;4.00;;;;;-143.90;100.00;75993.06;4972896;28;102241;-75
2023/10/01 06:52:28;;;;;;;;;2.75;2.75;;;;;-143.90;100.00;75974.44;4969129;28;102027;-75
2023/10/01 06:54:57;;;;;;;;;2.00;1.00;;;;;-143.90;100.00;75970.31;4985504;28;108559;-75
2023/10/01 06:57:27;;;;;;;;;3.75;3.25;;;;;-143.90;100.00;75962.03;4988466;28;102189;-75
2023/10/01 06:59:59;;;;;;;;;2.00;2.00;;;;;-143.90;100.00;75962.03;4972551;28;102354;-75
2023/10/01 07:02:27;;;;;;;;;4.75;3.50;;;;;-143.90;100.00;75962.03;4971351;28;102289;-75
2023/10/01 07:04:58;;;;;;;;;4.00;4.00;;;;;-143.90;100.00;75959.97;4971788;28;108904;-75
2023/10/01 07:07:28;;;;;;;;;5.00;3.75;;;;;-143.90;100.00;75955.84;4964921;28;103119;-75
2023/10/01 07:10:00;;;;;;;;;2.50;2.00;;;;;-143.90;100.00;75949.63;4976429;28;102441;-75
2023/10/01 07:12:27;;;;;;;;;3.00;3.00;;;;;-143.90;100.00;75941.38;4972442;28;102459;-75
2023/10/01 07:14:53;;;;;;;;;3.50;3.00;;;;;-143.90;100.00;75939.28;4976187;28;104430;-73
2023/10/01 07:17:25;;;;;;;;;4.00;3.50;;;;;-143.90;100.00;75941.38;4971512;28;102533;-74
2023/10/01 07:19:59;;;;;;;;;3.00;3.00;;;;;-143.90;100.00;75937.22;4973551;28;101928;-74
2023/10/01 07:22:31;;;;;;;;;1.25;1.25;;;;;-143.90;100.00;75920.69;4970964;28;103328;-74
2023/10/01 07:24:59;;;;;;;;;4.00;4.00;;;;;-143.90;100.00;75914.47;4966181;28;108714;-74
2023/10/01 07:27:27;;;;;;;;;5.00;3.00;;;;;-143.90;100.00;75910.34;4972104;28;103886;-75
2023/10/01 07:29:54;;;;;;;;;5.25;4.00;;;;;-143.90;100.00;75914.47;4970050;28;102826;-74
2023/10/01 07:32:24;;;;;;;;;4.75;4.00;;;;;-143.90;100.00;75895.88;4973603;28;102310;-75
2023/10/01 07:34:55;;;;;;;;;4.25;3.50;;;;;-143.90;100.00;75883.47;4970362;28;107986;-75
2023/10/01 07:37:31;;;;;;;;;2.00;2.00;;;;;-143.90;100.00;75877.25;4971626;28;102070;-75
2023/10/01 07:40:17;;;;;;;;;5.75;5.25;;;;;-143.90;100.00;75875.19;4964438;28;102168;-74
2023/10/01 07:42:47;;;;;;;;;7.75;5.00;;;;;-143.90;100.00;75879.34;4968680;28;101933;-74
2023/10/01 07:45:17;;;;;;;;;4.00;3.00;;;;;-143.90;100.00;75875.19;4965757;28;105401;-74
2023/10/01 07:47:45;;;;;;;;;2.75;2.75;;;;;-143.90;100.00;75862.78;4963709;28;102244;-73
2023/10/01 07:50:16;;;;;;;;;4.00;4.00;;;;;-143.90;100.00;75858.66;4968858;28;102985;-74
2023/10/01 07:52:44;;;;;;;;;3.00;3.00;;;;;-143.90;100.00;75840.03;4972544;28;102433;-74
2023/10/01 07:55:29;;;;;;;;;2.00;2.00;;;;;-143.90;100.00;75837.97;4972293;28;104099;-74
2023/10/01 08:00:47;;;;;;;;;2.25;2.25;;;;;-143.90;100.00;75817.31;4966519;28;102191;-74
2023/10/01 08:05:50;;;;;;;;;2.25;2.25;;;;;-143.90;100.00;75800.75;4971583;28;103986;-75
2023/10/01 08:08:37;;;;;;;;;3.00;2.00;;;;;-143.90;100.00;75782.16;4970534;28;102311;-75
2023/10/01 08:11:55;;;;;;;;;4.00;3.00;;;;;-143.90;100.00;75769.75;4967856;28;102052;-73
2023/10/01 08:13:57;;;;;;;;;3.00;2.25;;;;;-143.90;100.00;75761.47;4972128;28;102110;-74
2023/10/01 08:16:24;;;;;;;;;4.50;3.00;;;;;-143.90;100.00;75751.13;4974412;28;109135;-74
2023/10/01 08:18:57;;;;;;;;;3.00;2.75;;;;;-143.90;100.00;75744.94;4973803;28;102306;-75
2023/10/01 08:21:37;;;;;;;;;5.00;4.75;;;;;-143.90;100.00;75744.94;4971287;28;102130;-75
2023/10/01 08:24:09;;;;;;;;;3.00;3.00;;;;;-143.90;100.00;75734.59;4971959;28;102029;-75
2023/10/01 08:26:43;;;;;;;;;4.50;3.50;;;;;-143.90;100.00;75715.97;4982326;28;102865;-75
2023/10/01 08:29:14;;;;;;;;;2.00;2.00;;;;;-143.90;100.00;75709.78;4972386;28;102996;-75
2023/10/01 08:32:06;;;;;;;;;2.75;2.50;;;;;-143.90;100.00;75701.50;4965474;28;105810;-75
2023/10/01 08:34:54;;;;;;;;;2.00;2.00;;;;;-143.90;100.00;75695.31;4966911;28;103116;-75
2023/10/01 08:37:22;;;;;;;;;3.25;3.00;;;;;-143.90;100.00;75672.56;4966947;28;104048;-75
2023/10/01 08:39:53;;;;;;;;;2.00;2.00;;;;;-143.90;100.00;75656.03;4969473;28;102022;-75
2023/10/01 08:42:28;;;;;;;;;2.75;2.00;;;;;-143.90;100.00;75651.88;4968755;28;102250;-75
2023/10/01 08:45:04;;;;;;;;;2.00;2.00;;;;;-143.90;100.00;75656.03;4970574;28;102260;-75
2023/10/01 08:47:34;;;;;;;;;2.50;2.50;;;;;-143.90;100.00;75645.69;4966500;28;108610;-74
2023/10/01 08:52:58;;;;;;;;;3.00;2.50;;;;;-143.90;100.00;75616.72;4961344;28;101890;-75
2023/10/01 08:55:35;;;;;;;;;2.00;2.00;;;;;-143.90;100.00;75614.66;4968214;28;102334;-75
2023/10/01 08:58:14;;;;;;;;;5.25;3.75;;;;;-143.90;100.00;75612.59;4971003;28;108923;-74
2023/10/01 09:00:53;;;;;;;;;3.00;3.00;;;;;-143.90;100.00;75606.41;4967379;28;102216;-74
2023/10/01 09:03:28;;;;;;;;;2.00;2.00;;;;;-143.90;99.86;75589.84;4970378;28;102161;-74
2023/10/01 09:06:24;;;;;;;;;3.25;3.00;;;;;-143.90;100.00;75577.44;4970899;28;102113;-75
2023/10/01 09:08:59;;;;;;;;;3.00;3.00;;;;;-143.90;100.00;75569.19;4985222;28;108587;-74
2023/10/01 09:11:42;;;;;;;;;4.75;4.00;;;;;-143.90;100.00;75552.63;4971147;28;102132;-75
2023/10/01 09:14:17;;;;;;;;;4.75;4.00;;;;;-143.90;100.00;75536.09;4964231;28;101834;-74
2023/10/01 09:16:46;;;;;;;;;3.75;3.00;;;;;-143.90;99.89;75519.56;4972568;28;101888;-74
2023/10/01 09:19:35;;;;;;;;;2.00;2.00;;;;;-143.90;99.17;75513.34;4973199;28;104036;-75
2023/10/01 09:22:15;;;;;;;;;3.75;3.50;;;;;-143.90;98.63;75505.09;4983527;28;102023;-75
2023/10/01 09:24:55;;;;;;;;;5.00;3.75;;;;;-143.90;96.64;75490.63;4971009;28;102114;-75
2023/10/01 09:27:28;;;;;;;;;3.00;2.00;;;;;-143.90;98.25;75482.34;4984844;28;102303;-75
2023/10/01 09:30:26;;;;;;;;;3.50;3.50;;;;;-143.90;98.23;75461.66;4972133;28;108470;-74
2023/10/01 09:32:55;;;;;;;;;2.50;2.50;;;;;-143.90;97.29;75445.13;4968356;28;102268;-74
2023/10/01 09:35:38;;;;;;;;;3.25;2.75;;;;;-143.90;96.97;75441.00;4968587;28;103241;-74
2023/10/01 09:38:11;;;;;;;;;4.50;3.00;;;;;-143.90;97.95;75430.66;4970872;28;102225;-74
2023/10/01 09:40:42;;;;;;;;;3.00;2.75;;;;;-143.90;96.83;75422.38;4977206;28;105310;-75
2023/10/01 09:43:24;;;;;;;;;1.25;1.25;;;;;-143.90;94.74;75412.03;4957919;28;102026;-76
2023/10/01 09:45:52;;;;;;;;;1.25;1.25;;;;;-143.90;93.46;75393.44;4962112;28;103295;-76
2023/10/01 09:48:30;;;;;;;;;2.00;2.00;;;;;-143.90;93.50;75381.03;4961251;28;102264;-74
2023/10/01 09:51:15;;;;;;;;;3.00;3.00;;;;;-143.90;95.02;75374.84;4961297;28;104082;-74
2023/10/01 09:53:48;;;;;;;;;4.00;2.00;;;;;-143.90;94.84;75356.22;4966161;28;104688;-74
2023/10/01 09:56:46;;;;;;;;;6.00;4.50;;;;;-143.90;93.39;75345.88;4967150;28;102209;-74
2023/10/01 09:59:15;;;;;;;;;1.00;1.00;;;;;-143.90;93.33;75331.41;4966321;28;102366;-75
2023/10/01 10:01:45;;;;;;;;;3.00;2.75;;;;;-143.90;91.45;75314.88;4964164;27;103880;-75
2023/10/01 10:04:20;;;;;;;;;3.00;2.75;;;;;-143.90;90.85;75329.34;4970000;28;102002;-75
2023/10/01 10:06:59;;;;;;;;;2.75;2.00;;;;;-143.90;92.91;75325.22;4960436;28;101937;-74
2023/10/01 10:09:30;;;;;;;;;2.50;2.00;;;;;-143.90;91.66;75300.41;4970737;28;103532;-75
2023/10/01 10:12:01;;;;;;;;;3.00;2.75;;;;;-143.90;90.79;75288.00;4980127;28;104089;-76
2023/10/01 10:14:29;;;;;;;;;4.00;2.50;;;;;-143.90;89.25;75277.66;4969096;28;102624;-75
2023/10/01 10:17:00;;;;;;;;;3.00;2.50;;;;;-143.90;90.15;75269.38;4966620;28;102021;-75
2023/10/01 10:19:31;;;;;;;;;1.00;1.00;;;;;-143.90;89.65;75263.19;4960023;28;102698;-76
2023/10/01 10:24:47;;;;;;;;;4.75;3.50;;;;;-143.90;89.04;75242.50;4970223;28;102480;-75
2023/10/01 10:27:27;;;;;;;;;1.00;1.00;;;;;-143.90;88.82;75213.56;4964750;28;102180;-76
2023/10/01 10:29:57;;;;;;;;;4.00;4.00;;;;;-143.90;88.20;75197.03;4965346;28;103694;-75
2023/10/01 10:32:29;;;;;;;;;3.33;3.33;;;;;-143.90;85.22;75203.22;4967922;28;104042;-74
2023/10/01 10:35:04;;;;;;;;;5.00;3.00;;;;;-143.90;84.89;75209.44;4964729;28;101941;-74
2023/10/01 10:37:34;;;;;;;;;4.00;3.33;;;;;-143.90;86.41;75192.91;4964510;28;102652;-75
2023/10/01 10:42:47;;;;;;;;;1.00;1.00;;;;;-143.90;84.24;75163.94;4971068;28;109363;-74
2023/10/01 10:45:26;;;;;;;;;1.67;1.00;;;;;-143.90;84.70;75157.75;4967372;28;102001;-74
2023/10/01 10:48:05;;;;;;;;;2.00;1.67;;;;;-143.90;81.37;75153.63;4968302;28;102468;-75
2023/10/01 10:50:39;;;;;;;;;2.33;2.00;;;;;-143.90;81.98;75151.53;4965250;28;102260;-75
2023/10/01 10:53:14;;;;;;;;;2.67;2.67;;;;;-143.90;78.79;75159.81;4967264;28;104497;-75
2023/10/01 10:55:52;;;;;;;;;2.67;2.33;;;;;-143.90;78.99;75151.53;4965930;28;102594;-74
2023/10/01 10:58:20;;;;;;;;;2.33;1.33;;;;;-143.90;76.06;75159.81;4968026;28;102367;-74
2023/10/01 11:00:47;;;;;;;;;3.00;3.00;;;;;-143.90;72.34;75174.28;4965919;28;103268;-77
2023/10/01 11:03:16;;;;;;;;;3.67;3.00;;;;;-143.90;77.78;75180.50;4961156;28;104244;-76
2023/10/01 11:05:50;;;;;;;;;1.00;1.00;;;;;-143.90;75.59;75159.81;4972667;28;101955;-75
2023/10/01 11:08:26;;;;;;;;;2.00;2.00;;;;;-143.90;75.89;75151.53;4970249;28;102298;-75
2023/10/01 11:10:54;;;;;;;;;4.00;2.33;;;;;-143.90;72.84;75182.56;4973611;28;102417;-78
2023/10/01 11:13:37;;;;;;;;;6.00;4.67;;;;;-143.90;74.76;75153.63;4974491;28;102829;-75
2023/10/01 11:16:33;;;;;;;;;3.00;2.33;;;;;-143.90;75.80;75139.16;4964699;28;103643;-76
2023/10/01 11:18:51;;;;;;;;;1.00;1.00;;;;;-143.90;74.82;75118.47;4967727;28;102496;-75
2023/10/01 11:21:24;;;;;;;;;2.00;1.67;;;;;-143.90;71.48;75114.34;4971422;28;102389;-74
2023/10/01 11:23:53;;;;;;;;;1.33;1.00;;;;;-143.90;72.19;75106.06;4968304;28;104223;-75
2023/10/01 11:26:27;;;;;;;;;2.00;2.00;;;;;-143.90;74.61;75120.53;4972001;27;102401;-75
2023/10/01 11:28:57;;;;;;;;;1.00;1.00;;;;;-143.90;75.54;75097.78;4964162;28;102281;-74
2023/10/01 11:31:25;;;;;;;;;1.67;1.67;;;;;-143.90;74.84;75093.66;4970221;28;102110;-75
2023/10/01 11:34:03;;;;;;;;;1.00;1.00;;;;;-143.90;72.53;75097.78;4968025;28;104397;-76
2023/10/01 11:36:37;;;;;;;;;1.00;0.67;;;;;-143.90;74.44;75089.53;4967892;28;102539;-75
2023/10/01 11:39:04;;;;;;;;;1.00;1.00;;;;;-143.90;73.82;75075.06;4970870;27;102082;-75
2023/10/01 11:41:42;;;;;;;;;1.00;1.00;;;;;-143.90;72.07;75064.72;4978090;28;102838;-75
2023/10/01 11:44:24;;;;;;;;;0.67;0.67;;;;;-143.90;71.53;75068.84;4975437;28;109847;-76
2023/10/01 11:46:57;;;;;;;;;2.33;2.33;;;;;-143.90;72.31;75050.25;4964449;28;102269;-76
2023/10/01 11:50:06;;;;;;;;;2.00;1.00;;;;;-143.90;72.11;75021.31;4973528;28;102157;-75
2023/10/01 11:52:27;;;;;;;;;4.00;4.00;;;;;-143.90;67.73;75033.72;4965678;28;103334;-76
2023/10/01 11:54:53;;;;;;;;;4.00;3.00;;;;;-143.90;72.98;75019.22;4969287;28;103627;-75
2023/10/01 11:57:23;;;;;;;;;2.00;2.00;;;;;-143.90;70.55;74990.28;4971489;28;102270;-74
2023/10/01 11:59:55;;;;;;;;;2.00;2.00;;;;;-143.90;69.32;74994.44;4969090;28;103476;-75
2023/10/01 12:02:26;;;;;;;;;1.00;1.00;;;;;-143.90;70.39;74984.09;4975472;28;102229;-74
2023/10/01 12:04:57;;;;;;;;;2.00;2.00;;;;;-143.90;70.99;74988.22;4968558;28;104186;-75
2023/10/01 12:07:31;;;;;;;;;1.67;1.67;;;;;-143.90;72.24;74982.03;4968874;28;102021;-75
2023/10/01 12:10:04;;;;;;;;;0.33;0.33;;;;;-143.90;71.74;74969.63;4967209;28;104853;-75